Kirchberg-Wetter.de


Hier erfahren Sie, wie das Wetter wird...


WebCam am Fuchsberg more information WebCam am Fuchsberg


Thunder radar more information blitzortung!


Rain radar more information rain snow radar


Besuchen Sie unsere anderen Wetter Stationen:

Template documentation
and downloads



METAR-Meldungen aus der Umgebung

   
EHVK - Volkel Rnlafb, Netherlands
Entfernung von der Station bis: SW 18 km
Aktualisierung: 21-02-2024 01:29
Bewölkt  
Bewölkt  
   Wind: SW 20.4 km/h
Wind: SW 20.4 km/h
Temperatur: 9°C
Gefühlt: 6°C
Taupunkt: 7°C
Luftfeuchte: 87%
Luftdruck: 1022 hPa
Bewölkt: Bewölkt
Sichtbarkeit: More than 10 km
Bewölkung: Teilweise bewölkt 1400 ft,
Bewölkt 2100 ft
EHVK 210029Z AUTO 22011KT 190V250 9999 SCT014/// OVC021/// 09/07 Q1022 GRN
EDLV - Niederrhein, Germany
Entfernung von der Station bis: SO 25 km
Aktualisierung: 21-02-2024 01:20
Bewölkt  
Bewölkt  
   Wind: SSW 18.5 km/h
Wind: SSW 18.5 km/h
Temperatur: 9°C
Gefühlt: 6°C
Taupunkt: 6°C
Luftfeuchte: 82%
Luftdruck: 1022 hPa
Bewölkt: Bewölkt
Sichtbarkeit: More than 10 km
Bewölkung: leicht bewölkt 1600 ft,
Bewölkt 2900 ft
EDLV 210020Z AUTO 21010KT 9999 // FEW016/// OVC029/// 09/06 Q1022
EHDL - Deelen Rnlafb, Netherlands
Entfernung von der Station bis: N 35 km
Aktualisierung: 21-02-2024 01:25
Bewölkt  
Bewölkt  
   Wind: SW 18.5 km/h
Wind: SW 18.5 km/h
Temperatur: 9°C
Gefühlt: 6°C
Taupunkt: 7°C
Luftfeuchte: 87%
Luftdruck: 1021 hPa
Bewölkt: Bewölkt
Sichtbarkeit: More than 10 km
Bewölkung: Stark bewölkt 1400 ft,
Bewölkt 1600 ft
EHDL 210025Z AUTO 22010KT 170V270 9999 BKN014 OVC016 09/07 Q1021 GRN
EHEH - Eindhoven Rnlafb, Netherlands
Entfernung von der Station bis: SW 48 km
Aktualisierung: 21-02-2024 01:25
Stark bewölkt  
Stark bewölkt  
   Wind: SW 18.5 km/h
Wind: SW 18.5 km/h
Temperatur: 9°C
Gefühlt: 6°C
Taupunkt: 6°C
Luftfeuchte: 82%
Luftdruck: 1022 hPa
Bewölkt: Stark bewölkt
Sichtbarkeit: More than 10 km
Bewölkung: leicht bewölkt 1500 ft,
Teilweise bewölkt 2100 ft,
Stark bewölkt 2800 ft
EHEH 210025Z AUTO 23010KT 200V270 9999 FEW015 SCT021 BKN028 09/06 Q1022 WHT
EHGR - Gilze-Rijen Rnla, Netherlands
Entfernung von der Station bis: WSW 70 km
Aktualisierung: 21-02-2024 01:25
Bewölkt  
Bewölkt  
   Wind: SW 13 km/h
Wind: SW 13 km/h
Temperatur: 9°C
Gefühlt: 7°C
Taupunkt: 7°C
Luftfeuchte: 87%
Luftdruck: 1022 hPa
Bewölkt: Bewölkt
Sichtbarkeit: More than 10 km
Bewölkung: Bewölkt 2100 ft
EHGR 210025Z AUTO 22007KT 190V250 9999 OVC021 09/07 Q1022 WHT
EBBL - Kleine-Brogel(Ba, Belgium
Entfernung von der Station bis: SSW 71 km
Aktualisierung: 21-02-2024 00:55
Bewölkt  
Bewölkt  
   Wind: variiert Windstille
Wind: variiert Windstille
Temperatur: 9°C
Taupunkt: 6°C
Luftfeuchte: 82%
Luftdruck: 1023 hPa
Bewölkt: Bewölkt
Sichtbarkeit: More than 10 km
Bewölkung: Bewölkt 1800 ft
EBBL 202355Z AUTO //////KT 9999 OVC018/// 09/06 Q1023 WHT

Script entwickelt von  Saratoga-weather.org Angepasst für das Template von  Weerstation Leuven

Sie finden unser Wetter-Infos auch auf:

Weather Underground

WeatherlinkIP

Wetternetz-Sachsen

Von uns verwendete Ausrüstung:

Wetterstation
Davis Vantage Pro2 Plus

Wetterprogramm
Meteobridge

WetterComputer
TP-Link TL-MR3020

Davis Vantage Pro2 Plus

Meteobridge

TP-Link TL-MR3020